createdAt,value
2023-01-30T00:01:19.712Z,-62
2023-01-30T00:03:49.269Z,-63
2023-01-30T00:06:17.986Z,-62
2023-01-30T00:08:46.459Z,-61
2023-01-30T00:11:17.621Z,-62
2023-01-30T00:13:46.287Z,-62
2023-01-30T00:16:14.606Z,-62
2023-01-30T00:18:44.249Z,-63
2023-01-30T00:21:16.107Z,-61
2023-01-30T00:23:45.394Z,-62
2023-01-30T00:26:14.103Z,-62
2023-01-30T00:28:42.320Z,-62
2023-01-30T00:31:10.943Z,-63
2023-01-30T00:33:40.139Z,-62
2023-01-30T00:36:10.516Z,-62
2023-01-30T00:38:40.303Z,-62
2023-01-30T00:41:10.592Z,-61
2023-01-30T00:44:04.745Z,-63
2023-01-30T00:46:52.634Z,-63
2023-01-30T00:49:21.320Z,-62
2023-01-30T00:51:49.456Z,-62
2023-01-30T00:54:18.915Z,-64
2023-01-30T00:56:47.189Z,-62
2023-01-30T00:59:15.496Z,-62
2023-01-30T01:01:43.728Z,-62
2023-01-30T01:04:12.229Z,-62
2023-01-30T01:06:41.747Z,-62
2023-01-30T01:09:10.275Z,-63
2023-01-30T01:11:39.833Z,-61
2023-01-30T01:14:08.746Z,-62
2023-01-30T01:16:37.497Z,-64
2023-01-30T01:19:06.314Z,-63
2023-01-30T01:21:34.499Z,-62
2023-01-30T01:24:02.683Z,-64
2023-01-30T01:26:30.940Z,-63
2023-01-30T01:29:01.001Z,-64
2023-01-30T01:31:29.446Z,-63
2023-01-30T01:33:58.421Z,-62
2023-01-30T01:36:52.075Z,-62
2023-01-30T01:39:14.754Z,-62
2023-01-30T01:41:41.922Z,-62
2023-01-30T01:44:13.606Z,-62
2023-01-30T01:46:48.360Z,-63
2023-01-30T01:49:23.859Z,-63
2023-01-30T01:51:59.990Z,-62
2023-01-30T01:54:37.440Z,-63
2023-01-30T01:57:13.742Z,-61
2023-01-30T01:59:49.909Z,-62
2023-01-30T02:02:19.527Z,-62
2023-01-30T02:05:06.503Z,-61
2023-01-30T02:07:41.054Z,-61
2023-01-30T02:10:14.880Z,-63
2023-01-30T02:12:44.819Z,-62
2023-01-30T02:15:14.534Z,-62
2023-01-30T02:17:42.703Z,-62
2023-01-30T02:20:27.264Z,-62
2023-01-30T02:23:50.746Z,-62
2023-01-30T02:26:54.183Z,-62
2023-01-30T02:30:07.674Z,-61
2023-01-30T02:32:50.697Z,-62
2023-01-30T02:35:34.577Z,-62
2023-01-30T02:38:20.943Z,-62
2023-01-30T02:41:03.334Z,-62
2023-01-30T02:43:45.541Z,-62
2023-01-30T02:46:21.407Z,-62
2023-01-30T02:48:58.901Z,-63
2023-01-30T02:51:32.653Z,-63
2023-01-30T02:54:01.362Z,-63
2023-01-30T02:56:29.580Z,-62
2023-01-30T02:59:02.705Z,-63
2023-01-30T03:02:17.196Z,-62
2023-01-30T03:05:22.676Z,-63
2023-01-30T03:08:03.926Z,-62
2023-01-30T03:10:42.400Z,-62
2023-01-30T03:13:21.041Z,-63
2023-01-30T03:15:56.441Z,-62
2023-01-30T03:18:24.700Z,-62
2023-01-30T03:20:54.734Z,-62
2023-01-30T03:23:22.947Z,-62
2023-01-30T03:25:51.168Z,-64
2023-01-30T03:28:22.323Z,-63
2023-01-30T03:30:50.571Z,-62
2023-01-30T03:33:18.794Z,-63
2023-01-30T03:35:46.977Z,-62
2023-01-30T03:38:16.675Z,-63
2023-01-30T03:40:44.974Z,-63
2023-01-30T03:43:13.204Z,-62
2023-01-30T03:45:41.253Z,-62
2023-01-30T03:48:09.425Z,-63
2023-01-30T03:50:37.659Z,-62
2023-01-30T03:53:05.824Z,-62
2023-01-30T03:55:35.265Z,-63
2023-01-30T03:58:03.695Z,-63
2023-01-30T04:00:31.885Z,-62
2023-01-30T04:03:00.000Z,-64
2023-01-30T04:05:28.129Z,-62
2023-01-30T04:07:58.707Z,-62
2023-01-30T04:10:27.940Z,-63
2023-01-30T04:12:57.579Z,-63
2023-01-30T04:15:25.762Z,-62
2023-01-30T04:17:53.910Z,-63
2023-01-30T04:20:22.049Z,-63
2023-01-30T04:22:50.175Z,-62
2023-01-30T04:25:18.603Z,-63
2023-01-30T04:27:46.926Z,-62
2023-01-30T04:30:17.061Z,-62
2023-01-30T04:32:45.177Z,-62
2023-01-30T04:35:13.508Z,-62
2023-01-30T04:37:41.672Z,-62
2023-01-30T04:40:11.939Z,-64
2023-01-30T04:42:40.080Z,-63
2023-01-30T04:45:09.717Z,-63
2023-01-30T04:47:39.214Z,-63
2023-01-30T04:50:08.927Z,-62
2023-01-30T04:52:38.922Z,-62
2023-01-30T04:55:08.880Z,-63
2023-01-30T04:57:36.979Z,-62
2023-01-30T05:00:06.967Z,-63
2023-01-30T05:02:35.157Z,-63
2023-01-30T05:05:04.847Z,-62
2023-01-30T05:07:32.991Z,-64
2023-01-30T05:10:02.785Z,-63
2023-01-30T05:12:31.337Z,-63
2023-01-30T05:14:59.462Z,-64
2023-01-30T05:17:27.679Z,-63
2023-01-30T05:19:55.804Z,-63
2023-01-30T05:22:25.627Z,-63
2023-01-30T05:24:53.841Z,-63
2023-01-30T05:27:22.013Z,-62
2023-01-30T05:29:50.142Z,-63
2023-01-30T05:32:21.134Z,-64
2023-01-30T05:34:50.451Z,-62
2023-01-30T05:37:18.575Z,-62
2023-01-30T05:39:48.057Z,-63
2023-01-30T05:42:17.126Z,-63
2023-01-30T05:44:45.973Z,-63
2023-01-30T05:47:14.391Z,-63
2023-01-30T05:49:43.041Z,-62
2023-01-30T05:52:11.088Z,-62
2023-01-30T05:54:39.141Z,-63
2023-01-30T05:57:08.520Z,-63
2023-01-30T05:59:36.565Z,-63
2023-01-30T06:02:04.626Z,-64
2023-01-30T06:04:32.648Z,-62
2023-01-30T06:07:00.682Z,-63
2023-01-30T06:09:28.742Z,-63
2023-01-30T06:11:56.738Z,-62
2023-01-30T06:14:26.125Z,-63
2023-01-30T06:16:54.379Z,-63
2023-01-30T06:19:22.490Z,-63
2023-01-30T06:21:50.564Z,-64
2023-01-30T06:24:18.648Z,-63
2023-01-30T06:26:46.768Z,-63
2023-01-30T06:29:15.170Z,-65
2023-01-30T06:31:44.660Z,-66
2023-01-30T06:34:13.059Z,-64
2023-01-30T06:36:41.131Z,-63
2023-01-30T06:39:09.370Z,-65
2023-01-30T06:41:37.494Z,-66
2023-01-30T06:44:06.099Z,-66
2023-01-30T06:46:34.293Z,-65
2023-01-30T06:49:03.801Z,-66
2023-01-30T06:51:32.472Z,-67
2023-01-30T06:54:00.617Z,-65
2023-01-30T06:56:28.794Z,-65
2023-01-30T06:58:56.917Z,-64
2023-01-30T07:01:25.017Z,-64
2023-01-30T07:03:53.123Z,-65
2023-01-30T07:06:22.594Z,-66
2023-01-30T07:08:50.661Z,-66
2023-01-30T07:11:18.729Z,-67
2023-01-30T07:13:46.830Z,-65
2023-01-30T07:16:14.870Z,-66
2023-01-30T07:18:42.920Z,-64
2023-01-30T07:21:10.977Z,-66
2023-01-30T07:23:40.361Z,-67
2023-01-30T07:26:08.479Z,-65
2023-01-30T07:28:36.590Z,-63
2023-01-30T07:31:04.678Z,-63
2023-01-30T07:33:32.735Z,-65
2023-01-30T07:36:00.776Z,-65
2023-01-30T07:38:28.851Z,-65
2023-01-30T07:40:59.927Z,-63
2023-01-30T07:43:28.021Z,-64
2023-01-30T07:45:56.062Z,-65
2023-01-30T07:48:24.110Z,-64
2023-01-30T07:50:52.533Z,-63
2023-01-30T07:53:20.571Z,-63
2023-01-30T07:55:48.892Z,-64
2023-01-30T07:58:18.356Z,-66
2023-01-30T08:00:46.643Z,-65
2023-01-30T08:03:16.651Z,-66
2023-01-30T08:05:46.843Z,-66
2023-01-30T08:08:15.241Z,-62
2023-01-30T08:10:43.383Z,-63
2023-01-30T08:13:11.491Z,-62
2023-01-30T08:15:41.062Z,-63
2023-01-30T08:18:09.161Z,-63
2023-01-30T08:20:38.263Z,-61
2023-01-30T08:23:06.476Z,-62
2023-01-30T08:25:35.383Z,-62
2023-01-30T08:28:04.775Z,-63
2023-01-30T08:30:32.952Z,-65
2023-01-30T08:33:02.592Z,-64
2023-01-30T08:35:30.655Z,-67
2023-01-30T08:37:59.875Z,-68
2023-01-30T08:40:28.320Z,-68
2023-01-30T08:42:56.956Z,-66
2023-01-30T08:45:25.047Z,-63
2023-01-30T08:47:53.100Z,-64
2023-01-30T08:50:22.614Z,-64
2023-01-30T08:52:50.654Z,-64
2023-01-30T08:55:19.068Z,-63
2023-01-30T08:57:47.188Z,-64
2023-01-30T09:00:17.564Z,-63
2023-01-30T09:02:48.569Z,-62
2023-01-30T09:05:16.973Z,-64
2023-01-30T09:07:46.500Z,-66
2023-01-30T09:10:14.868Z,-66
2023-01-30T09:12:42.876Z,-65
2023-01-30T09:15:12.148Z,-65
2023-01-30T09:17:40.242Z,-68
2023-01-30T09:20:13.009Z,-67
2023-01-30T09:22:41.140Z,-68
2023-01-30T09:25:11.115Z,-65
2023-01-30T09:27:39.142Z,-62
2023-01-30T09:30:09.186Z,-65
2023-01-30T09:32:37.492Z,-66
2023-01-30T09:35:06.333Z,-64
2023-01-30T09:37:34.375Z,-64
2023-01-30T09:40:02.409Z,-64
2023-01-30T09:43:05.135Z,-63
2023-01-30T09:45:46.718Z,-65
2023-01-30T09:48:27.953Z,-64
2023-01-30T09:51:22.994Z,-66
2023-01-30T09:54:17.929Z,-66
2023-01-30T09:56:46.381Z,-66
2023-01-30T09:59:28.906Z,-65
2023-01-30T10:02:25.778Z,-65
2023-01-30T10:05:01.884Z,-66
2023-01-30T10:07:57.143Z,-64
2023-01-30T10:10:50.988Z,-64
2023-01-30T10:13:43.606Z,-64
2023-01-30T10:16:22.658Z,-64
2023-01-30T10:19:36.751Z,-64
2023-01-30T10:22:22.562Z,-64
2023-01-30T10:25:04.237Z,-65
2023-01-30T10:27:34.408Z,-64
2023-01-30T10:30:08.968Z,-65
2023-01-30T10:32:48.250Z,-65
2023-01-30T10:35:21.606Z,-64
2023-01-30T10:37:59.490Z,-65
2023-01-30T10:40:39.301Z,-65
2023-01-30T10:43:20.522Z,-63
2023-01-30T10:46:02.569Z,-64
2023-01-30T10:48:55.352Z,-63
2023-01-30T10:51:44.601Z,-63
2023-01-30T10:54:22.245Z,-62
2023-01-30T10:57:03.173Z,-63
2023-01-30T10:59:46.536Z,-63
2023-01-30T11:02:26.627Z,-64
2023-01-30T11:05:03.744Z,-65
2023-01-30T11:07:34.457Z,-66
2023-01-30T11:10:02.584Z,-66
2023-01-30T11:12:30.665Z,-67
2023-01-30T11:15:01.279Z,-66
2023-01-30T11:17:38.383Z,-62
2023-01-30T11:20:16.014Z,-61
2023-01-30T11:22:50.185Z,-64
2023-01-30T11:25:22.554Z,-66
2023-01-30T11:27:57.902Z,-65
2023-01-30T11:30:31.063Z,-65
2023-01-30T11:33:13.710Z,-66
2023-01-30T11:35:56.897Z,-66
2023-01-30T11:38:28.654Z,-65
2023-01-30T11:41:19.106Z,-65
2023-01-30T11:43:48.257Z,-65
2023-01-30T11:46:20.998Z,-66
2023-01-30T11:49:32.575Z,-65
2023-01-30T11:51:48.565Z,-65
2023-01-30T11:54:21.975Z,-66
2023-01-30T11:56:56.237Z,-66
2023-01-30T11:59:31.729Z,-63
2023-01-30T12:02:17.443Z,-64
2023-01-30T12:04:47.180Z,-64
2023-01-30T12:07:24.651Z,-67
2023-01-30T12:09:54.176Z,-68
2023-01-30T12:12:35.345Z,-64
2023-01-30T12:15:24.239Z,-64
2023-01-30T12:18:04.530Z,-64
2023-01-30T12:20:50.697Z,-63
2023-01-30T12:23:31.163Z,-65
2023-01-30T12:26:08.518Z,-62
2023-01-30T12:28:48.430Z,-68
2023-01-30T12:31:25.825Z,-67
2023-01-30T12:33:55.219Z,-68
2023-01-30T12:36:42.652Z,-66
2023-01-30T12:39:40.846Z,-66
2023-01-30T12:42:35.814Z,-64
2023-01-30T12:45:21.242Z,-62
2023-01-30T12:48:43.921Z,-65
2023-01-30T12:51:36.878Z,-69
2023-01-30T12:54:20.295Z,-66
2023-01-30T12:57:10.136Z,-67
2023-01-30T12:59:50.545Z,-66
2023-01-30T13:02:48.496Z,-67
2023-01-30T13:05:34.048Z,-66
2023-01-30T13:08:22.787Z,-66
2023-01-30T13:11:04.186Z,-67
2023-01-30T13:13:43.010Z,-64
2023-01-30T13:16:24.883Z,-66
2023-01-30T13:18:59.765Z,-68
2023-01-30T13:21:37.808Z,-63
2023-01-30T13:24:27.069Z,-64
2023-01-30T13:27:01.481Z,-66
2023-01-30T13:29:38.908Z,-64
2023-01-30T13:32:16.659Z,-65
2023-01-30T13:34:49.360Z,-70
2023-01-30T13:37:20.196Z,-70
2023-01-30T13:39:53.881Z,-70
2023-01-30T13:42:34.022Z,-64
2023-01-30T13:45:06.013Z,-63
2023-01-30T13:47:53.207Z,-65
2023-01-30T13:50:56.562Z,-66
2023-01-30T13:53:33.712Z,-65
2023-01-30T13:56:39.633Z,-66
2023-01-30T13:59:26.336Z,-66
2023-01-30T14:02:21.600Z,-66
2023-01-30T14:04:52.788Z,-66
2023-01-30T14:07:29.497Z,-65
2023-01-30T14:10:15.255Z,-65
2023-01-30T14:12:47.725Z,-67
2023-01-30T14:15:28.836Z,-65
2023-01-30T14:18:07.204Z,-65
2023-01-30T14:20:38.103Z,-66
2023-01-30T14:23:20.155Z,-65
2023-01-30T14:25:51.734Z,-66
2023-01-30T14:28:50.888Z,-68
2023-01-30T14:31:53.187Z,-63
2023-01-30T14:34:42.134Z,-65
2023-01-30T14:38:04.591Z,-65
2023-01-30T14:40:47.614Z,-65
2023-01-30T14:43:53.107Z,-63
2023-01-30T14:46:55.101Z,-62
2023-01-30T14:49:31.875Z,-62
2023-01-30T14:52:03.416Z,-66
2023-01-30T14:54:42.233Z,-64
2023-01-30T14:57:32.552Z,-65
2023-01-30T15:00:18.542Z,-65
2023-01-30T15:02:54.300Z,-69
2023-01-30T15:05:32.275Z,-68
2023-01-30T15:08:09.449Z,-70
2023-01-30T15:10:59.747Z,-70
2023-01-30T15:13:43.860Z,-66
2023-01-30T15:16:41.222Z,-65
2023-01-30T15:19:38.739Z,-67
2023-01-30T15:22:23.971Z,-64
2023-01-30T15:25:34.700Z,-64
2023-01-30T15:28:36.987Z,-65
2023-01-30T15:31:12.520Z,-65
2023-01-30T15:33:49.405Z,-66
2023-01-30T15:36:38.702Z,-66
2023-01-30T15:39:20.345Z,-66
2023-01-30T15:41:52.495Z,-67
2023-01-30T15:44:54.853Z,-67
2023-01-30T15:47:48.281Z,-66
2023-01-30T15:50:17.462Z,-67
2023-01-30T15:52:49.824Z,-65
2023-01-30T15:55:24.573Z,-63
2023-01-30T15:57:59.135Z,-66
2023-01-30T16:00:32.589Z,-67
2023-01-30T16:03:05.903Z,-67
2023-01-30T16:05:34.144Z,-70
2023-01-30T16:08:21.033Z,-71
2023-01-30T16:10:49.828Z,-69
2023-01-30T16:13:21.032Z,-68
2023-01-30T16:15:57.800Z,-66
2023-01-30T16:18:34.442Z,-67
2023-01-30T16:21:08.549Z,-66
2023-01-30T16:23:41.866Z,-66
2023-01-30T16:26:21.660Z,-66
2023-01-30T16:28:59.507Z,-67
2023-01-30T16:31:34.476Z,-67
2023-01-30T16:34:03.016Z,-67
2023-01-30T16:36:39.202Z,-67
2023-01-30T16:39:31.132Z,-68
2023-01-30T16:42:02.144Z,-67
2023-01-30T16:44:33.237Z,-65
2023-01-30T16:47:24.160Z,-69
2023-01-30T16:49:54.305Z,-67
2023-01-30T16:52:27.206Z,-66
2023-01-30T16:54:59.605Z,-69
2023-01-30T16:57:36.627Z,-67
2023-01-30T17:00:24.317Z,-65
2023-01-30T17:02:56.812Z,-66
2023-01-30T17:05:28.505Z,-66
2023-01-30T17:08:00.470Z,-68
2023-01-30T17:11:03.524Z,-66
2023-01-30T17:13:37.143Z,-66
2023-01-30T17:16:35.182Z,-65
2023-01-30T17:19:04.004Z,-66
2023-01-30T17:21:44.151Z,-65
2023-01-30T17:24:17.391Z,-65
2023-01-30T17:26:48.031Z,-69
2023-01-30T17:29:23.459Z,-70
2023-01-30T17:32:11.159Z,-67
2023-01-30T17:34:41.132Z,-69
2023-01-30T17:37:16.790Z,-69
2023-01-30T17:39:45.228Z,-65
2023-01-30T17:42:15.245Z,-68
2023-01-30T17:44:43.456Z,-67
2023-01-30T17:47:13.482Z,-68
2023-01-30T17:49:41.683Z,-66
2023-01-30T17:52:10.064Z,-66
2023-01-30T17:54:38.117Z,-65
2023-01-30T17:57:09.675Z,-66
2023-01-30T17:59:37.818Z,-67
2023-01-30T18:02:11.661Z,-66
2023-01-30T18:04:40.661Z,-66
2023-01-30T18:07:14.216Z,-67
2023-01-30T18:09:42.299Z,-66
2023-01-30T18:12:10.404Z,-66
2023-01-30T18:14:38.510Z,-69
2023-01-30T18:17:06.747Z,-70
2023-01-30T18:19:37.379Z,-64
2023-01-30T18:22:05.463Z,-65
2023-01-30T18:24:34.256Z,-64
2023-01-30T18:27:02.372Z,-69
2023-01-30T18:29:30.813Z,-68
2023-01-30T18:32:04.862Z,-68
2023-01-30T18:34:33.457Z,-68
2023-01-30T18:37:03.213Z,-69
2023-01-30T18:39:31.876Z,-69
2023-01-30T18:42:01.993Z,-67
2023-01-30T18:44:30.238Z,-68
2023-01-30T18:46:58.583Z,-68
2023-01-30T18:49:26.970Z,-68
2023-01-30T18:51:55.055Z,-66
2023-01-30T18:54:24.537Z,-71
2023-01-30T18:56:52.664Z,-72
2023-01-30T18:59:20.929Z,-75
2023-01-30T19:01:48.986Z,-68
2023-01-30T19:04:17.061Z,-69
2023-01-30T19:06:45.540Z,-66
2023-01-30T19:09:17.285Z,-69
2023-01-30T19:12:04.185Z,-65
2023-01-30T19:14:32.304Z,-63
2023-01-30T19:17:00.417Z,-63
2023-01-30T19:19:28.555Z,-69
2023-01-30T19:21:56.662Z,-67
2023-01-30T19:24:25.093Z,-68
2023-01-30T19:26:54.739Z,-71
2023-01-30T19:29:23.126Z,-72
2023-01-30T19:31:51.265Z,-68
2023-01-30T19:34:19.772Z,-66
2023-01-30T19:36:48.109Z,-73
2023-01-30T19:39:16.243Z,-68
2023-01-30T19:41:44.453Z,-72
2023-01-30T19:44:14.134Z,-68
2023-01-30T19:46:43.094Z,-69
2023-01-30T19:49:12.886Z,-66
2023-01-30T19:51:41.739Z,-64
2023-01-30T19:54:12.800Z,-66
2023-01-30T19:56:41.914Z,-66
2023-01-30T19:59:13.879Z,-70
2023-01-30T20:01:41.993Z,-65
2023-01-30T20:04:10.178Z,-69
2023-01-30T20:06:39.244Z,-66
2023-01-30T20:09:11.083Z,-71
2023-01-30T20:11:41.938Z,-65
2023-01-30T20:14:11.716Z,-71
2023-01-30T20:16:41.726Z,-66
2023-01-30T20:19:14.579Z,-67
2023-01-30T20:21:43.625Z,-65
2023-01-30T20:24:12.913Z,-66
2023-01-30T20:26:41.253Z,-65
2023-01-30T20:29:11.417Z,-66
2023-01-30T20:31:41.009Z,-65
2023-01-30T20:34:14.529Z,-66
2023-01-30T20:36:42.745Z,-67
2023-01-30T20:39:11.406Z,-65
2023-01-30T20:41:39.807Z,-68
2023-01-30T20:44:13.056Z,-72
2023-01-30T20:46:45.728Z,-69
2023-01-30T20:49:16.755Z,-64
2023-01-30T20:51:46.156Z,-65
2023-01-30T20:54:16.082Z,-65
2023-01-30T20:56:46.938Z,-76
2023-01-30T20:59:17.964Z,-69
2023-01-30T21:01:47.768Z,-69
2023-01-30T21:04:18.190Z,-68
2023-01-30T21:06:47.329Z,-68
2023-01-30T21:09:18.551Z,-67
2023-01-30T21:11:47.895Z,-76
2023-01-30T21:14:17.571Z,-65
2023-01-30T21:16:47.725Z,-69
2023-01-30T21:19:18.247Z,-65
2023-01-30T21:21:50.650Z,-66
2023-01-30T21:24:23.722Z,-62
2023-01-30T21:26:53.018Z,-65
2023-01-30T21:29:24.644Z,-66
2023-01-30T21:31:55.500Z,-65
2023-01-30T21:34:24.152Z,-67
2023-01-30T21:37:06.252Z,-64
2023-01-30T21:39:51.618Z,-69
2023-01-30T21:42:37.827Z,-64
2023-01-30T21:45:07.672Z,-68
2023-01-30T21:47:37.342Z,-65
2023-01-30T21:50:06.706Z,-63
2023-01-30T21:52:34.980Z,-62
2023-01-30T21:55:03.073Z,-63
2023-01-30T21:57:31.317Z,-69
2023-01-30T21:59:59.433Z,-68
2023-01-30T22:02:27.591Z,-68
2023-01-30T22:04:57.068Z,-69
2023-01-30T22:07:25.189Z,-68
2023-01-30T22:09:53.281Z,-69
2023-01-30T22:12:21.440Z,-68
2023-01-30T22:14:49.615Z,-67
2023-01-30T22:17:17.799Z,-68
2023-01-30T22:19:46.299Z,-68
2023-01-30T22:22:15.854Z,-68
2023-01-30T22:24:43.974Z,-68
2023-01-30T22:27:12.228Z,-68
2023-01-30T22:29:40.312Z,-69
2023-01-30T22:32:08.481Z,-68
2023-01-30T22:34:36.892Z,-70
2023-01-30T22:37:05.115Z,-68
2023-01-30T22:39:34.616Z,-68
2023-01-30T22:42:02.762Z,-69
2023-01-30T22:44:30.883Z,-68
2023-01-30T22:46:59.036Z,-69
2023-01-30T22:49:27.326Z,-68
2023-01-30T22:51:55.503Z,-68
2023-01-30T22:54:25.032Z,-67
2023-01-30T22:56:54.948Z,-69
2023-01-30T22:59:23.261Z,-68
2023-01-30T23:01:52.069Z,-68
2023-01-30T23:04:22.925Z,-69
2023-01-30T23:06:52.329Z,-70
2023-01-30T23:09:23.567Z,-68
2023-01-30T23:12:13.219Z,-68
2023-01-30T23:14:42.719Z,-67
2023-01-30T23:17:28.191Z,-68
2023-01-30T23:19:57.040Z,-68
2023-01-30T23:22:25.565Z,-69
2023-01-30T23:24:54.047Z,-67
2023-01-30T23:27:23.621Z,-67
2023-01-30T23:29:51.766Z,-68
2023-01-30T23:32:20.135Z,-68
2023-01-30T23:34:48.731Z,-68
2023-01-30T23:37:17.313Z,-69
2023-01-30T23:39:46.499Z,-69
2023-01-30T23:42:14.674Z,-68
2023-01-30T23:44:44.218Z,-69
2023-01-30T23:47:12.341Z,-68
2023-01-30T23:49:40.476Z,-68
2023-01-30T23:52:11.166Z,-68
2023-01-30T23:54:39.732Z,-68
2023-01-30T23:57:07.912Z,-67
2023-01-30T23:59:36.286Z,-68
